Airfield :
LOGIN :

Register | Disclaimer

   EN    FR    IT 

 










Legend :    VFR   Marginal VFR   IFR   Intensive IFR   Very Intensive IFR
Visi :
Ceiling :
>= 8 km
>= 3000ft
5 to 8 km
1000 to 3000 ft
1500m to 5 km
500 to 1000 ft
800 to 1500m
200 to 500 ft
< 800m
< 200 ft
Symbols :   Thunderstorms  Fog  Heavy snow  Heavy precipitations  Wind > 20 kt
SIGMETs :     Misc.  Thunderstorms  Icing  Turbulence  Mountain Waves  Volcanic Ashes






- Airport Elevation : 184 ft
- IATA code : BRU


EBBR - Bruxelles

CURRENT METAR :
  • 192220Z 28008KT 250V360 3500 -SHRA BKN006 18/16 Q1008 TEMPO 2000 BR

EXPIRED METARs :
  • 192150Z 07003KT 350V150 4000 -SHRA SCT006 SCT015CB 18/17 Q1007 TEMPO VRB22G36KT 2000 TSRA
  • 192120Z 07006KT 030V100 5000 -SHRA FEW040CB 18/16 Q1008 TEMPO FM2030 VRB22G36KT 2000 TSRA
  • 192050Z 05005KT 5000 -SHRA FEW040CB 18/16 Q1008 TEMPO FM2030 VRB22G36KT 2000 TSRA BKN008
  • 192020Z 02006KT 8000 -SHRA FEW040CB 18/16 Q1009 TEMPO FM2030 VRB22G36KT 2000 TSRA BKN008
  • 191950Z 01005KT CAVOK 18/16 Q1009 TEMPO FM2030 VRB22G36KT 2000 TSRA BKN008
  • 191920Z 36004KT CAVOK 19/16 Q1010 TEMPO FM2100 VRB22G36KT 3000 MODTSRA BKN008

TAF TAF EBBR
Valid from the 19 at 18:00 until the 21 at 00:00 UTC


191710Z 1918/2024 05009KT 9999 SCT030
PROB40
TEMPO 1921/1924 VRB22G36KT 3000 TSRA TSRAGR BKN008 BKN035CB
PROB30
TEMPO 2000/2006 BKN007
BECMG 2004/2006 22011KT
BECMG 2015/2017 35006KT



MET'MAP, your aeronautical weather chart ! - Copyright ORBIFLY December 2007 - Disclaimer

ORBIFLY MET'MAP TEAM :

Programming & Development : Alexandra Zaïnal
Concept & original design : Baudouin d'Aumeries
Assistance for programming : Marc-Olivier Méhu
Technical & hardware support : Manuel Goepfert

Contact : metmap@orbifly.com




SOURCES & CREDITS :

   NOAA